Direction — WDD4634 — position and weather

sailwx.info

Track history (hours):
 
Tides and Currents Weather Stations Pressure Air Temp Water Temp Dewpoint Dewpoint Depression Visibility Wind Speed Wind Dir Waves Ship Positions

Direction

Owner: Broadbill Fishing Inc, Westport, MA. More information available from US FCC via Universal Licensing System and Coast Guard Vessel Documentation Center.

Last reported at 2014-Dec-28 09:28 UTC. Time now 2015-Mar-04 18:50 UTC.
Position N 41°37' W 070°54'.
Warning: this ship's position is months out of date.

Length 25 m.

Type: Fishing. MMSI: 367147350.

Date/timePositionNaut miles runAvg speedWind from/ knotsBaromVisibWave heightAir tempDewpointWater temp
2014-Dec-28 09:28N 41°37' W 070°54'8 8.3
2014-Dec-28 08:33N 41°30' W 070°51'8 7.8
2014-Dec-28 07:33N 41°22' W 070°52'7 7.4
2014-Dec-28 06:34N 41°16' W 070°46'8 8.4
2014-Dec-28 05:33N 41°08' W 070°42'9 8.5
2014-Dec-28 04:33N 41°00' W 070°39'9 8.6
2014-Dec-28 03:32N 40°52' W 070°35'17 8.4
2014-Dec-28 01:30N 40°36' W 070°27'8 8.1
2014-Dec-28 00:28N 40°28' W 070°23'8 6.9
2014-Dec-27 23:18N 40°21' W 070°20'19 1.4
2014-Dec-27 09:28N 40°39' W 070°15'18 9.5
2014-Dec-27 07:32N 40°55' W 070°28'10 9.2
2014-Dec-27 06:28N 41°03' W 070°35'9 9.1
2014-Dec-27 05:29N 41°11' W 070°42'11 8.9
2014-Dec-27 04:18N 41°19' W 070°50'  
Track history (hours):
 
Tides and Currents Weather Stations Pressure Air Temp Water Temp Dewpoint Dewpoint Depression Visibility Wind Speed Wind Dir Waves Ship Positions

Direction

Owner: Broadbill Fishing Inc, Westport, MA. More information available from US FCC via Universal Licensing System and Coast Guard Vessel Documentation Center.

Last reported at 2014-Dec-28 09:28 UTC. Time now 2015-Mar-04 18:50 UTC.
Position N 41°37' W 070°54'.
Warning: this ship's position is months out of date.

Length 25 m.

Type: Fishing. MMSI: 367147350.

Date/timePositionNaut miles runAvg speedWind from/ knotsBaromVisibWave heightAir tempDewpointWater temp
2014-Dec-28 09:28N 41°37' W 070°54'8 8.3
2014-Dec-28 08:33N 41°30' W 070°51'8 7.8
2014-Dec-28 07:33N 41°22' W 070°52'7 7.4
2014-Dec-28 06:34N 41°16' W 070°46'8 8.4
2014-Dec-28 05:33N 41°08' W 070°42'9 8.5
2014-Dec-28 04:33N 41°00' W 070°39'9 8.6
2014-Dec-28 03:32N 40°52' W 070°35'17 8.4
2014-Dec-28 01:30N 40°36' W 070°27'8 8.1
2014-Dec-28 00:28N 40°28' W 070°23'8 6.9
2014-Dec-27 23:18N 40°21' W 070°20'19 1.4
2014-Dec-27 09:28N 40°39' W 070°15'18 9.5
2014-Dec-27 07:32N 40°55' W 070°28'10 9.2
2014-Dec-27 06:28N 41°03' W 070°35'9 9.1
2014-Dec-27 05:29N 41°11' W 070°42'11 8.9
2014-Dec-27 04:18N 41°19' W 070°50'  

Dump ship's entire track history